Time;durP1;ratioP1;P1;durP2;ratioP2;P2;SDS_P1;SDS_P2;PMS_P1;PMS_P2;Temp;Humidity;BMP_temperature;BMP_pressure;BME280_temperature;BME280_humidity;BME280_pressure;Samples;Min_cycle;Max_cycle;Signal;HPM_P1;HPM_P2
2021/09/23 00:02:14;;;;;;;11.80;7.60;;;;;;;11.67;100.00;101349.38;5093081;28;20174;-67
2021/09/23 00:04:40;;;;;;;17.17;9.37;;;;;;;11.71;100.00;101337.59;5091945;28;20197;-68
2021/09/23 00:07:05;;;;;;;10.37;7.47;;;;;;;11.65;100.00;101344.09;5092933;28;20171;-67
2021/09/23 00:09:30;;;;;;;13.93;8.83;;;;;;;11.54;100.00;101330.41;5092921;28;20627;-67
2021/09/23 00:11:56;;;;;;;14.40;9.80;;;;;;;11.65;100.00;101325.41;5092970;28;20181;-67
2021/09/23 00:14:21;;;;;;;16.20;10.83;;;;;;;11.69;100.00;101326.97;5092805;28;20190;-67
2021/09/23 00:16:47;;;;;;;13.73;9.97;;;;;;;11.75;100.00;101323.97;5093664;28;20170;-67
2021/09/23 00:19:12;;;;;;;13.97;11.20;;;;;;;11.80;100.00;101318.44;5092926;28;20733;-67
2021/09/23 00:21:37;;;;;;;14.53;10.70;;;;;;;11.80;100.00;101313.09;5092497;28;20170;-67
2021/09/23 00:24:03;;;;;;;19.53;11.53;;;;;;;11.83;100.00;101312.94;5091676;28;20193;-67
2021/09/23 00:26:28;;;;;;;20.93;11.57;;;;;;;11.86;100.00;101304.75;5093491;28;20693;-67
2021/09/23 00:28:53;;;;;;;22.33;11.83;;;;;;;11.89;100.00;101301.91;5096102;28;20177;-67
2021/09/23 00:31:19;;;;;;;16.97;11.83;;;;;;;11.86;100.00;101299.41;5096094;28;20738;-67
2021/09/23 00:33:44;;;;;;;19.27;12.17;;;;;;;11.78;100.00;101285.56;5096066;28;20517;-68
2021/09/23 00:36:09;;;;;;;18.87;12.70;;;;;;;11.82;100.00;101287.13;5096429;28;20185;-67
2021/09/23 00:38:35;;;;;;;17.83;12.30;;;;;;;11.74;100.00;101278.59;5096070;28;20251;-67
2021/09/23 00:41:00;;;;;;;15.17;11.43;;;;;;;11.66;100.00;101275.47;5095765;28;20670;-68
2021/09/23 00:43:25;;;;;;;16.37;11.93;;;;;;;11.61;100.00;101270.34;5095696;28;20171;-67
2021/09/23 00:45:50;;;;;;;13.53;11.33;;;;;;;11.61;100.00;101269.47;5095709;28;20197;-67
2021/09/23 00:48:16;;;;;;;15.23;11.20;;;;;;;11.53;100.00;101268.06;5094474;28;20170;-67
2021/09/23 00:50:41;;;;;;;16.70;10.60;;;;;;;11.56;100.00;101265.22;5095647;28;20192;-67
2021/09/23 00:53:07;;;;;;;20.37;12.67;;;;;;;11.48;100.00;101263.84;5095879;28;20578;-67
2021/09/23 00:55:33;;;;;;;18.03;11.83;;;;;;;11.50;100.00;101256.63;5095105;28;20202;-67
2021/09/23 00:57:58;;;;;;;21.37;13.23;;;;;;;11.55;100.00;101266.19;5095156;28;20194;-68
2021/09/23 01:00:25;;;;;;;18.87;13.37;;;;;;;11.52;100.00;101249.41;5096379;28;20193;-67
2021/09/23 01:02:50;;;;;;;21.30;13.80;;;;;;;11.58;100.00;101247.31;5095573;28;20170;-68
2021/09/23 01:05:15;;;;;;;18.07;12.47;;;;;;;11.64;100.00;101254.16;5095319;28;20597;-67
2021/09/23 01:07:46;;;;;;;18.77;14.07;;;;;;;11.63;100.00;101265.78;5095353;28;20167;-67
2021/09/23 01:10:12;;;;;;;21.07;13.47;;;;;;;11.56;100.00;101253.66;5095348;28;20648;-67
2021/09/23 01:12:37;;;;;;;21.60;14.03;;;;;;;11.55;100.00;101258.16;5077029;28;20181;-68
2021/09/23 01:15:03;;;;;;;25.30;14.97;;;;;;;11.55;100.00;101260.81;5095096;28;20194;-68
2021/09/23 01:17:28;;;;;;;20.53;14.40;;;;;;;11.61;100.00;101258.78;5094183;28;20181;-68
2021/09/23 01:19:54;;;;;;;22.03;13.53;;;;;;;11.68;100.00;101253.03;5093970;28;20197;-68
2021/09/23 01:22:19;;;;;;;23.50;14.70;;;;;;;11.74;100.00;101251.88;5095260;28;20174;-68
2021/09/23 01:24:45;;;;;;;23.30;16.03;;;;;;;11.78;100.00;101242.78;5095157;28;20190;-68
2021/09/23 01:27:11;;;;;;;26.90;15.63;;;;;;;11.78;100.00;101235.63;5094095;28;20177;-68
2021/09/23 01:29:38;;;;;;;22.30;14.87;;;;;;;11.81;100.00;101223.88;5095277;28;20169;-68
2021/09/23 01:32:05;;;;;;;23.53;14.83;;;;;;;11.81;100.00;101213.19;5093855;28;20177;-68
2021/09/23 01:34:32;;;;;;;21.20;14.97;;;;;;;11.77;100.00;101207.09;5095010;28;20213;-68
2021/09/23 01:36:57;;;;;;;23.37;15.20;;;;;;;11.75;100.00;101202.78;5094132;28;20174;-68
2021/09/23 01:39:25;;;;;;;22.80;15.57;;;;;;;11.70;100.00;101199.50;5094684;28;20198;-68
2021/09/23 01:41:51;;;;;;;25.73;16.10;;;;;;;11.62;100.00;101197.22;5093475;28;20217;-68
2021/09/23 01:44:16;;;;;;;25.60;16.87;;;;;;;11.65;100.00;101202.41;5093875;28;20218;-68
2021/09/23 01:46:41;;;;;;;25.43;15.53;;;;;;;11.67;100.00;101202.31;5094908;28;20245;-68
2021/09/23 01:49:07;;;;;;;24.17;16.70;;;;;;;11.74;100.00;101201.06;5093612;28;20204;-68
2021/09/23 01:51:32;;;;;;;20.23;16.03;;;;;;;11.74;100.00;101185.00;5093211;28;20175;-68
2021/09/23 01:53:58;;;;;;;26.63;16.67;;;;;;;11.67;100.00;101189.81;5094553;28;20197;-68
2021/09/23 01:56:23;;;;;;;23.03;16.67;;;;;;;11.59;100.00;101179.53;5093491;28;20636;-68
2021/09/23 01:58:48;;;;;;;26.17;17.30;;;;;;;11.72;100.00;101171.72;5093309;28;20198;-68
2021/09/23 02:01:14;;;;;;;28.83;17.60;;;;;;;11.71;100.00;101167.31;5094656;28;20264;-68
2021/09/23 02:03:39;;;;;;;24.03;17.33;;;;;;;11.70;100.00;101172.75;5094439;28;20257;-68
2021/09/23 02:06:05;;;;;;;26.03;17.27;;;;;;;11.58;100.00;101175.13;5092941;28;20205;-68
2021/09/23 02:08:30;;;;;;;24.50;16.80;;;;;;;11.62;100.00;101169.63;5092796;28;20178;-68
2021/09/23 02:10:55;;;;;;;24.43;16.53;;;;;;;11.63;100.00;101163.31;5076152;28;20181;-68
2021/09/23 02:13:21;;;;;;;23.07;17.10;;;;;;;11.66;100.00;101156.00;5094510;28;20652;-68
2021/09/23 02:15:46;;;;;;;25.63;18.10;;;;;;;11.60;100.00;101153.66;5092742;28;20190;-68
2021/09/23 02:18:11;;;;;;;23.83;17.40;;;;;;;11.55;100.00;101155.72;5094459;28;20202;-68
2021/09/23 02:20:36;;;;;;;26.77;17.77;;;;;;;11.52;100.00;101148.72;5092980;28;20174;-68
2021/09/23 02:23:02;;;;;;;31.10;17.67;;;;;;;11.51;100.00;101146.09;5092594;28;20197;-68
2021/09/23 02:25:27;;;;;;;24.53;17.77;;;;;;;11.50;100.00;101147.03;5093839;28;20224;-68
2021/09/23 02:27:52;;;;;;;25.77;18.23;;;;;;;11.41;100.00;101145.72;5093719;28;20170;-68
2021/09/23 02:30:18;;;;;;;27.30;18.33;;;;;;;11.44;100.00;101153.56;5093765;28;20608;-68
2021/09/23 02:32:43;;;;;;;24.43;18.13;;;;;;;11.38;100.00;101145.88;5094180;28;20170;-68
2021/09/23 02:35:09;;;;;;;28.77;18.77;;;;;;;11.30;100.00;101148.06;5092313;28;20740;-67
2021/09/23 02:37:34;;;;;;;29.93;19.63;;;;;;;11.29;100.00;101157.03;5093762;28;20201;-68
2021/09/23 02:39:59;;;;;;;26.97;19.53;;;;;;;11.25;100.00;101158.13;5093749;28;20529;-68
2021/09/23 02:42:25;;;;;;;28.50;21.50;;;;;;;11.36;100.00;101153.09;5092378;28;20227;-68
2021/09/23 02:44:51;;;;;;;28.53;21.23;;;;;;;11.35;100.00;101140.69;5093412;28;20250;-68
2021/09/23 02:47:17;;;;;;;39.27;21.67;;;;;;;11.33;100.00;101136.34;5092553;28;20261;-68
2021/09/23 02:49:43;;;;;;;27.63;20.93;;;;;;;11.42;100.00;101123.38;5092207;28;20163;-68
2021/09/23 02:52:08;;;;;;;31.40;20.53;;;;;;;11.42;100.00;101115.38;5093317;28;20198;-68
2021/09/23 02:54:33;;;;;;;30.70;21.93;;;;;;;11.41;100.00;101100.28;5111832;23;20711;-73
2021/09/23 02:56:58;;;;;;;35.10;22.27;;;;;;;11.45;100.00;101099.16;5072109;28;20183;-73
2021/09/23 02:59:24;;;;;;;34.97;22.53;;;;;;;11.45;100.00;101092.97;5072130;28;20201;-73
2021/09/23 03:01:49;;;;;;;35.70;23.67;;;;;;;11.43;100.00;101085.03;5072879;28;20220;-72
2021/09/23 03:04:14;;;;;;;34.07;23.13;;;;;;;11.44;100.00;101078.72;5073574;28;20198;-73
2021/09/23 03:06:40;;;;;;;33.00;23.00;;;;;;;11.46;100.00;101076.84;5075420;28;20171;-73
2021/09/23 03:09:08;;;;;;;31.37;22.93;;;;;;;11.51;100.00;101068.56;5081163;28;20170;-73
2021/09/23 03:11:33;;;;;;;33.53;24.03;;;;;;;11.59;100.00;101064.56;5072874;28;20167;-73
2021/09/23 03:13:59;;;;;;;34.93;23.10;;;;;;;11.68;100.00;101062.34;5072688;28;20182;-73
2021/09/23 03:16:24;;;;;;;33.73;23.37;;;;;;;11.70;100.00;101039.06;5071459;28;20676;-73
2021/09/23 03:18:49;;;;;;;33.13;23.33;;;;;;;11.70;100.00;101045.28;5071728;28;20201;-73
2021/09/23 03:21:15;;;;;;;30.33;22.13;;;;;;;11.72;100.00;101038.03;5071485;28;20167;-72
2021/09/23 03:23:40;;;;;;;36.47;23.50;;;;;;;11.74;100.00;101048.63;5072851;28;20198;-74
2021/09/23 03:26:05;;;;;;;32.17;23.70;;;;;;;11.77;100.00;101035.97;5071293;28;20691;-73
2021/09/23 03:28:33;;;;;;;31.53;23.07;;;;;;;11.75;100.00;101013.78;5071394;28;20194;-73
2021/09/23 03:30:58;;;;;;;39.57;24.17;;;;;;;11.80;100.00;101025.13;5072849;28;20171;-72
2021/09/23 03:33:23;;;;;;;28.60;22.57;;;;;;;11.79;100.00;101015.38;5054566;28;20675;-72
2021/09/23 03:35:49;;;;;;;33.80;22.87;;;;;;;11.81;100.00;101015.28;5071259;28;20672;-73
2021/09/23 03:38:14;;;;;;;36.30;23.67;;;;;;;11.79;100.00;101002.00;5072895;28;20242;-74
2021/09/23 03:40:39;;;;;;;34.67;24.10;;;;;;;11.83;100.00;100992.00;5071353;28;20171;-74
2021/09/23 03:43:05;;;;;;;32.13;23.80;;;;;;;11.81;100.00;100992.09;5072505;28;20187;-74
2021/09/23 03:45:30;;;;;;;32.53;22.50;;;;;;;11.86;100.00;100989.16;5071152;28;20194;-73
2021/09/23 03:47:55;;;;;;;36.80;23.13;;;;;;;11.79;100.00;100980.63;5071154;28;20182;-74
2021/09/23 03:50:21;;;;;;;34.33;24.10;;;;;;;11.85;100.00;100974.91;5071211;28;20174;-73
2021/09/23 03:52:47;;;;;;;29.87;21.90;;;;;;;11.68;100.00;100966.97;5072362;28;20171;-74
2021/09/23 03:55:12;;;;;;;29.00;22.77;;;;;;;11.71;100.00;100965.91;5070945;28;20199;-74
2021/09/23 03:57:37;;;;;;;39.47;21.93;;;;;;;11.71;100.00;100965.91;5072489;28;20233;-73
2021/09/23 04:00:03;;;;;;;36.20;23.23;;;;;;;11.53;100.00;100971.34;5071020;28;20191;-73
2021/09/23 04:02:29;;;;;;;28.70;22.37;;;;;;;11.57;100.00;100969.38;5074481;28;20274;-73
2021/09/23 04:04:54;;;;;;;32.47;23.53;;;;;;;11.55;100.00;100963.25;5074671;28;20226;-73
2021/09/23 04:07:19;;;;;;;33.23;22.93;;;;;;;11.53;100.00;100971.34;5057976;28;20171;-73
2021/09/23 04:09:45;;;;;;;33.13;23.67;;;;;;;11.51;100.00;100962.50;5057971;28;20175;-73
2021/09/23 04:12:10;;;;;;;31.13;22.83;;;;;;;11.46;100.00;100967.25;5076391;28;20270;-75
2021/09/23 04:14:35;;;;;;;31.90;24.20;;;;;;;11.38;100.00;100958.78;5076411;28;20265;-75
2021/09/23 04:17:01;;;;;;;32.77;23.43;;;;;;;11.41;100.00;100953.28;5058017;28;20174;-74
2021/09/23 04:19:26;;;;;;;33.80;24.47;;;;;;;11.35;100.00;100950.09;5074885;28;20199;-74
2021/09/23 04:21:52;;;;;;;34.87;24.07;;;;;;;11.35;100.00;100952.75;5075272;28;20171;-73
2021/09/23 04:24:18;;;;;;;37.97;24.13;;;;;;;11.27;100.00;100951.38;5074629;28;20547;-73
2021/09/23 04:26:45;;;;;;;38.50;24.67;;;;;;;11.30;100.00;100953.00;5058000;28;20163;-73
2021/09/23 04:29:10;;;;;;;34.07;24.67;;;;;;;11.19;100.00;100947.38;5074503;28;20255;-73
2021/09/23 04:31:35;;;;;;;36.57;26.00;;;;;;;11.13;100.00;100958.38;5057617;28;20183;-73
2021/09/23 04:34:01;;;;;;;39.50;24.83;;;;;;;11.14;100.00;100952.09;5057661;28;20201;-74
2021/09/23 04:36:26;;;;;;;35.23;25.93;;;;;;;11.14;100.00;100952.94;5076896;28;20194;-74
2021/09/23 04:38:52;;;;;;;38.40;25.33;;;;;;;11.11;100.00;100954.94;5078064;28;20190;-74
2021/09/23 04:41:17;;;;;;;35.53;26.27;;;;;;;11.08;100.00;100955.09;5074621;28;20670;-74
2021/09/23 04:43:42;;;;;;;36.73;26.30;;;;;;;11.11;100.00;100950.44;5074473;28;20193;-74
2021/09/23 04:46:08;;;;;;;35.07;25.07;;;;;;;11.15;100.00;100967.16;5074912;28;20233;-74
2021/09/23 04:48:35;;;;;;;35.47;25.73;;;;;;;11.11;100.00;100955.78;5074470;28;20186;-73
2021/09/23 04:51:00;;;;;;;41.53;26.40;;;;;;;11.09;100.00;100956.81;5075045;28;20174;-73
2021/09/23 04:53:26;;;;;;;38.43;26.83;;;;;;;11.09;100.00;100947.00;5074761;28;20563;-73
2021/09/23 04:55:51;;;;;;;36.63;26.57;;;;;;;11.11;100.00;100954.94;5075235;28;20263;-73
2021/09/23 04:58:16;;;;;;;41.77;27.50;;;;;;;11.14;100.00;100954.75;5074471;28;20206;-73
2021/09/23 05:00:43;;;;;;;36.03;25.43;;;;;;;11.09;100.00;100948.81;5075673;28;20533;-74
2021/09/23 05:03:10;;;;;;;37.73;27.23;;;;;;;11.02;100.00;100942.94;5074546;28;20636;-74
2021/09/23 05:05:35;;;;;;;38.07;27.33;;;;;;;11.06;100.00;100938.28;5073874;28;20193;-72
2021/09/23 05:08:00;;;;;;;38.80;26.93;;;;;;;11.13;100.00;100948.56;5075471;28;20175;-73
2021/09/23 05:10:26;;;;;;;39.93;28.27;;;;;;;11.09;100.00;100935.44;5074348;28;20190;-73
2021/09/23 05:12:51;;;;;;;41.93;28.17;;;;;;;11.12;100.00;100932.59;5073433;28;20171;-72
2021/09/23 05:15:16;;;;;;;36.70;26.90;;;;;;;11.15;100.00;100925.31;5073647;28;20191;-72
2021/09/23 05:17:41;;;;;;;40.77;28.40;;;;;;;11.22;100.00;100933.88;5075703;28;20217;-73
2021/09/23 05:20:08;;;;;;;40.00;26.70;;;;;;;11.14;100.00;100922.69;5073391;28;20206;-73
2021/09/23 05:22:33;;;;;;;39.13;27.07;;;;;;;11.22;100.00;100916.03;5073783;28;20198;-73
2021/09/23 05:24:58;;;;;;;39.07;28.20;;;;;;;11.23;100.00;100908.88;5073805;28;20672;-73
2021/09/23 05:27:24;;;;;;;36.20;26.53;;;;;;;11.31;100.00;100911.13;5073657;28;20179;-73
2021/09/23 05:29:49;;;;;;;39.90;27.57;;;;;;;11.28;100.00;100898.78;5073316;28;20175;-72
2021/09/23 05:32:14;;;;;;;41.23;27.30;;;;;;;11.33;100.00;100896.72;5073186;28;20186;-73
2021/09/23 05:34:40;;;;;;;36.27;25.63;;;;;;;11.41;100.00;100894.50;5074533;28;20226;-73
2021/09/23 05:37:05;;;;;;;37.97;25.27;;;;;;;11.26;100.00;100877.50;5074128;28;20174;-73
2021/09/23 05:39:30;;;;;;;37.50;25.97;;;;;;;11.37;100.00;100882.25;5075101;28;20238;-73
2021/09/23 05:41:56;;;;;;;35.93;25.43;;;;;;;11.46;100.00;100868.38;5074607;28;20257;-73
2021/09/23 05:44:24;;;;;;;32.07;24.73;;;;;;;11.41;100.00;100862.41;5073183;28;20178;-73
2021/09/23 05:46:50;;;;;;;41.37;26.73;;;;;;;11.39;100.00;100848.28;5074217;28;20175;-73
2021/09/23 05:49:16;;;;;;;38.97;25.23;;;;;;;11.47;100.00;100846.03;5074390;28;20163;-74
2021/09/23 05:51:41;;;;;;;38.53;26.07;;;;;;;11.51;100.00;100850.25;5072959;28;20170;-73
2021/09/23 05:54:07;;;;;;;38.70;26.63;;;;;;;11.42;100.00;100837.41;5073873;28;20179;-74
2021/09/23 05:56:33;;;;;;;40.83;26.57;;;;;;;11.52;100.00;100833.31;5073767;28;20190;-74
2021/09/23 05:58:58;;;;;;;38.57;25.67;;;;;;;11.58;100.00;100827.59;5072671;28;20195;-73
2021/09/23 06:01:23;;;;;;;33.13;24.80;;;;;;;11.47;100.00;100830.00;5074234;28;20166;-73
2021/09/23 06:03:48;;;;;;;39.53;26.47;;;;;;;11.58;100.00;100826.75;5074211;28;20182;-73
2021/09/23 06:06:14;;;;;;;37.20;25.67;;;;;;;11.73;100.00;100831.19;5073821;28;20191;-74
2021/09/23 06:08:39;;;;;;;34.47;23.83;;;;;;;11.65;100.00;100828.09;5073081;28;20163;-73
2021/09/23 06:11:04;;;;;;;33.30;25.33;;;;;;;11.75;100.00;100834.63;5073742;28;20182;-73
2021/09/23 06:13:30;;;;;;;36.83;25.17;;;;;;;11.77;100.00;100829.19;5073691;28;20544;-72
2021/09/23 06:15:58;;;;;;;34.83;25.40;;;;;;;11.88;100.00;100829.47;5073742;28;20194;-74
2021/09/23 06:18:23;;;;;;;34.77;23.60;;;;;;;11.85;100.00;100830.50;5075920;28;20194;-74
2021/09/23 06:20:49;;;;;;;35.20;23.73;;;;;;;11.94;100.00;100826.47;5073736;28;20198;-73
2021/09/23 06:23:15;;;;;;;36.10;24.27;;;;;;;12.03;100.00;100817.88;5072122;28;20175;-75
2021/09/23 06:25:40;;;;;;;37.47;24.93;;;;;;;12.09;100.00;100806.81;5073479;28;20270;-74
2021/09/23 06:28:05;;;;;;;34.83;24.77;;;;;;;12.07;100.00;100798.03;5072309;28;20202;-75
2021/09/23 06:30:31;;;;;;;38.63;25.83;;;;;;;12.15;100.00;100790.38;5073770;28;20224;-73
2021/09/23 06:32:56;;;;;;;36.47;25.60;;;;;;;12.14;100.00;100774.44;5073770;28;20170;-74
2021/09/23 06:35:21;;;;;;;34.30;24.33;;;;;;;12.25;100.00;100774.63;5073775;28;20191;-73
2021/09/23 06:37:47;;;;;;;33.70;24.10;;;;;;;12.28;100.00;100766.44;5072220;28;20548;-74
2021/09/23 06:40:13;;;;;;;37.33;24.40;;;;;;;12.25;100.00;100774.63;5072030;28;20202;-73
2021/09/23 06:42:38;;;;;;;37.97;24.40;;;;;;;12.32;100.00;100756.41;5073329;28;20183;-73
2021/09/23 06:45:04;;;;;;;39.30;24.53;;;;;;;12.48;100.00;100765.22;5073374;28;20216;-74
2021/09/23 06:47:29;;;;;;;40.63;26.43;;;;;;;12.52;100.00;100756.03;5073411;28;20179;-74
2021/09/23 06:49:55;;;;;;;31.60;23.60;;;;;;;12.57;100.00;100748.56;5073358;28;20652;-74
2021/09/23 06:52:20;;;;;;;34.93;23.57;;;;;;;12.62;100.00;100746.47;5072083;28;20174;-75
2021/09/23 06:54:46;;;;;;;34.03;22.93;;;;;;;12.92;100.00;100742.81;5071919;28;20213;-75
2021/09/23 06:57:11;;;;;;;33.77;24.37;;;;;;;13.00;99.18;100730.63;5073065;28;20170;-74
2021/09/23 06:59:36;;;;;;;35.10;23.87;;;;;;;13.10;97.77;100747.00;5072944;28;20198;-74
2021/09/23 07:02:02;;;;;;;34.57;24.07;;;;;;;13.06;97.74;100724.91;5073106;28;20632;-73
2021/09/23 07:04:27;;;;;;;37.13;24.87;;;;;;;13.20;97.70;100721.34;5073317;28;20278;-74
2021/09/23 07:06:52;;;;;;;33.57;24.43;;;;;;;13.23;96.86;100713.09;5072339;28;20175;-74
2021/09/23 07:09:18;;;;;;;33.57;22.53;;;;;;;13.15;96.63;100707.34;5071889;28;20210;-75
2021/09/23 07:11:43;;;;;;;33.77;23.93;;;;;;;13.18;97.04;100693.78;5072936;28;20170;-74
2021/09/23 07:14:08;;;;;;;33.37;22.43;;;;;;;13.18;97.38;100690.25;5054539;28;20171;-73
2021/09/23 07:16:33;;;;;;;33.77;21.70;;;;;;;13.23;97.05;100691.66;5073088;28;20620;-72
2021/09/23 07:18:59;;;;;;;29.93;21.97;;;;;;;13.19;97.37;100679.44;5071481;28;20199;-74
2021/09/23 07:21:24;;;;;;;36.63;23.80;;;;;;;13.05;97.48;100690.19;5072658;28;20597;-74
2021/09/23 07:23:49;;;;;;;36.47;23.47;;;;;;;12.88;98.76;100666.28;5071604;28;20175;-74
2021/09/23 07:26:17;;;;;;;35.97;22.67;;;;;;;12.85;98.11;100653.94;5072968;28;20240;-73
2021/09/23 07:28:42;;;;;;;36.27;24.03;;;;;;;12.92;98.93;100662.44;5072228;28;20167;-74
2021/09/23 07:31:08;;;;;;;39.47;24.20;;;;;;;12.96;97.61;100658.59;5071962;28;20264;-74
2021/09/23 07:33:33;;;;;;;39.73;23.87;;;;;;;12.96;98.46;100653.25;5073077;28;20172;-73
2021/09/23 07:35:58;;;;;;;32.73;23.33;;;;;;;12.79;98.21;100652.53;5072428;28;20191;-73
2021/09/23 07:38:24;;;;;;;34.97;22.80;;;;;;;13.13;97.79;100653.00;5077011;28;20289;-73
2021/09/23 07:40:49;;;;;;;33.17;23.47;;;;;;;12.91;96.78;100656.22;5075805;28;20166;-74
2021/09/23 07:43:14;;;;;;;37.43;23.50;;;;;;;13.03;97.54;100636.69;5075372;28;20177;-73
2021/09/23 07:45:39;;;;;;;34.30;23.00;;;;;;;13.39;94.80;100636.09;5076314;28;20195;-74
2021/09/23 07:48:05;;;;;;;35.93;23.97;;;;;;;13.46;94.94;100620.44;5076289;28;20640;-74
2021/09/23 07:50:30;;;;;;;37.00;24.60;;;;;;;13.67;93.50;100608.22;5076314;28;20532;-74
2021/09/23 07:52:55;;;;;;;32.57;23.37;;;;;;;13.44;94.72;100607.13;5075500;28;20236;-73
2021/09/23 07:55:21;;;;;;;37.63;22.50;;;;;;;13.57;94.39;100601.78;5076134;28;20206;-73
2021/09/23 07:57:46;;;;;;;32.50;23.07;;;;;;;13.54;93.26;100587.72;5074702;28;20171;-74
2021/09/23 08:00:13;;;;;;;36.07;23.10;;;;;;;13.45;94.14;100592.78;5076207;28;20191;-74
2021/09/23 08:02:38;;;;;;;35.77;24.13;;;;;;;13.18;95.23;100575.03;5076422;28;20182;-72
2021/09/23 08:05:04;;;;;;;36.03;23.47;;;;;;;13.38;94.48;100582.53;5083140;28;20193;-73
2021/09/23 08:07:29;;;;;;;37.07;24.27;;;;;;;13.37;94.91;100584.38;5087159;28;20236;-73
2021/09/23 08:09:54;;;;;;;37.63;23.37;;;;;;;13.45;94.75;100587.41;5087161;28;20182;-73
2021/09/23 08:12:20;;;;;;;32.07;22.10;;;;;;;13.41;94.07;100575.19;5086360;28;20181;-73
2021/09/23 08:14:45;;;;;;;36.63;22.13;;;;;;;13.50;93.58;100572.81;5083989;28;20191;-73
2021/09/23 08:17:10;;;;;;;36.93;23.50;;;;;;;13.52;92.90;100561.03;5076202;28;20174;-73
2021/09/23 08:19:36;;;;;;;31.87;21.60;;;;;;;13.69;92.92;100552.66;5074759;28;20606;-74
2021/09/23 08:22:03;;;;;;;36.47;23.03;;;;;;;13.75;92.64;100565.66;5074616;28;20182;-74
2021/09/23 08:24:28;;;;;;;32.60;22.03;;;;;;;13.95;92.24;100563.38;5074441;28;20195;-75
2021/09/23 08:26:54;;;;;;;34.47;22.73;;;;;;;13.89;92.16;100570.03;5074498;28;20229;-74
2021/09/23 08:29:19;;;;;;;36.67;22.67;;;;;;;13.91;92.02;100569.94;5076102;28;20528;-73
2021/09/23 08:31:45;;;;;;;38.93;22.23;;;;;;;14.07;91.25;100573.22;5074271;28;20174;-75
2021/09/23 08:34:10;;;;;;;34.30;21.47;;;;;;;14.17;91.38;100574.31;5075555;28;20167;-74
2021/09/23 08:36:36;;;;;;;33.43;21.57;;;;;;;14.11;90.94;100563.97;5075505;28;20175;-73
2021/09/23 08:39:01;;;;;;;33.53;22.07;;;;;;;14.11;91.56;100558.63;5075965;28;20205;-75
2021/09/23 08:41:26;;;;;;;30.43;21.43;;;;;;;14.30;91.28;100555.47;5075405;28;20170;-74
2021/09/23 08:43:52;;;;;;;35.87;21.53;;;;;;;14.47;90.63;100551.56;5075669;28;20170;-74
2021/09/23 08:46:18;;;;;;;34.40;20.87;;;;;;;14.42;90.33;100538.47;5074980;28;20234;-73
2021/09/23 08:48:43;;;;;;;30.90;21.27;;;;;;;14.38;90.72;100539.66;5074395;28;20173;-74
2021/09/23 08:51:09;;;;;;;33.50;21.10;;;;;;;14.56;89.71;100521.38;5075544;28;20167;-74
2021/09/23 08:53:34;;;;;;;33.67;20.97;;;;;;;14.52;89.68;100510.00;5075611;28;20199;-73
2021/09/23 08:56:00;;;;;;;29.93;20.27;;;;;;;14.53;90.09;100511.72;5100045;22;20706;-72
2021/09/23 08:58:25;;;;;;;28.90;19.93;;;;;;;14.58;89.92;100493.44;5078468;28;20207;-73
2021/09/23 09:01:13;;;;;;;31.33;20.70;;;;;;;14.72;90.07;100515.72;5076139;28;20659;-72
2021/09/23 09:03:39;;;;;;;29.90;20.17;;;;;;;14.63;89.74;100511.88;5060734;28;20175;-72
2021/09/23 09:06:07;;;;;;;28.87;20.27;;;;;;;14.70;88.96;100497.88;5038393;28;20203;-71
2021/09/23 09:08:33;;;;;;;29.23;19.33;;;;;;;14.67;89.74;100497.25;5055118;28;20179;-72
2021/09/23 09:11:01;;;;;;;29.17;19.07;;;;;;;14.78;89.58;100477.63;5055900;28;20175;-72
2021/09/23 09:13:41;;;;;;;26.10;18.90;;;;;;;14.78;89.38;100497.28;5054744;28;20702;-72
2021/09/23 09:16:11;;;;;;;30.23;18.93;;;;;;;14.78;89.68;100477.63;5038787;28;20542;-70
2021/09/23 09:18:38;;;;;;;27.43;19.30;;;;;;;14.78;88.62;100477.63;5054450;28;20191;-73
2021/09/23 09:21:09;;;;;;;30.00;19.03;;;;;;;14.67;89.98;100475.75;5037566;28;20637;-71
2021/09/23 09:23:55;;;;;;;24.83;18.13;;;;;;;14.75;90.41;100481.41;5037429;28;20190;-70
2021/09/23 09:26:32;;;;;;;26.67;17.50;;;;;;;14.88;89.59;100473.28;5055471;28;20198;-73
2021/09/23 09:29:01;;;;;;;27.70;18.63;;;;;;;15.15;88.70;100465.78;5036967;28;20160;-71
2021/09/23 09:31:27;;;;;;;29.93;18.17;;;;;;;15.42;85.95;100453.84;5053906;28;20187;-72
2021/09/23 09:33:54;;;;;;;32.63;17.47;;;;;;;15.33;85.94;100445.53;5037110;28;20180;-71
2021/09/23 09:36:24;;;;;;;29.10;17.60;;;;;;;15.35;86.80;100439.19;5037140;28;20195;-73
2021/09/23 09:38:54;;;;;;;24.77;17.90;;;;;;;15.33;86.44;100426.72;5053949;28;20203;-71
2021/09/23 09:41:27;;;;;;;26.63;17.13;;;;;;;15.33;86.50;100426.72;5036575;28;20172;-71
2021/09/23 09:43:54;;;;;;;25.37;18.53;;;;;;;15.28;86.50;100399.34;5053240;28;20180;-72
2021/09/23 09:46:28;;;;;;;25.27;16.67;;;;;;;15.22;86.50;100410.53;5036573;28;20334;-72
2021/09/23 09:48:54;;;;;;;27.80;17.93;;;;;;;15.36;86.82;100393.34;5054776;28;20224;-73
2021/09/23 09:51:34;;;;;;;26.53;15.77;;;;;;;15.43;85.66;100399.06;5036845;28;20286;-71
2021/09/23 09:54:00;;;;;;;23.20;16.37;;;;;;;15.48;86.24;100394.19;5037331;28;20155;-72
2021/09/23 09:56:25;;;;;;;24.63;17.37;;;;;;;15.49;86.05;100395.91;5056716;28;20270;-73
2021/09/23 09:59:17;;;;;;;23.53;16.67;;;;;;;15.33;86.57;100412.41;5040075;28;20238;-73
2021/09/23 10:01:48;;;;;;;23.67;15.77;;;;;;;15.18;87.30;100382.19;5047513;28;20186;-73
2021/09/23 10:04:14;;;;;;;22.13;16.67;;;;;;;15.09;88.34;100379.38;5065402;28;20250;-73
2021/09/23 10:06:40;;;;;;;23.80;15.97;;;;;;;15.01;88.25;100383.53;5054791;28;20211;-71
2021/09/23 10:09:07;;;;;;;26.63;16.43;;;;;;;15.13;88.88;100376.34;5046734;28;20661;-72
2021/09/23 10:11:32;;;;;;;26.10;17.10;;;;;;;15.17;88.97;100367.03;5054256;28;20172;-72
2021/09/23 10:13:58;;;;;;;22.47;15.63;;;;;;;15.12;88.25;100382.69;5036698;28;20172;-72
2021/09/23 10:16:23;;;;;;;27.03;17.07;;;;;;;15.23;88.58;100377.31;5053648;28;20195;-71
2021/09/23 10:18:49;;;;;;;22.07;14.50;;;;;;;15.22;88.83;100372.91;5036096;28;20202;-71
2021/09/23 10:21:15;;;;;;;25.17;15.80;;;;;;;15.27;88.97;100377.94;5052758;28;20172;-72
2021/09/23 10:23:41;;;;;;;24.07;16.07;;;;;;;15.22;88.88;100362.16;5036175;28;20215;-71
2021/09/23 10:26:09;;;;;;;21.17;14.80;;;;;;;15.25;89.02;100358.41;5052635;28;20742;-72
2021/09/23 10:28:35;;;;;;;23.30;15.37;;;;;;;15.19;89.24;100351.66;5052764;28;20241;-73
2021/09/23 10:31:02;;;;;;;26.13;16.00;;;;;;;15.41;88.73;100331.97;5035944;28;20266;-71
2021/09/23 10:33:28;;;;;;;19.70;14.13;;;;;;;15.46;87.88;100350.44;5036045;28;20206;-71
2021/09/23 10:35:53;;;;;;;26.63;15.47;;;;;;;15.50;87.55;100323.16;5035855;28;20199;-73
2021/09/23 10:38:18;;;;;;;26.20;14.70;;;;;;;15.45;87.65;100319.13;5036231;28;20182;-72
2021/09/23 10:40:44;;;;;;;24.77;14.80;;;;;;;15.40;87.88;100310.59;5052745;28;20183;-72
2021/09/23 10:43:13;;;;;;;27.73;15.37;;;;;;;15.33;88.36;100335.28;5035642;28;20644;-71
2021/09/23 10:45:40;;;;;;;18.00;13.73;;;;;;;15.39;88.61;100306.19;5035595;28;20192;-73
2021/09/23 10:48:05;;;;;;;23.77;14.80;;;;;;;15.44;88.11;100295.91;5053012;28;20179;-72
2021/09/23 10:50:36;;;;;;;27.23;13.97;;;;;;;15.46;87.86;100293.94;5036516;28;20172;-73
2021/09/23 10:53:03;;;;;;;21.50;14.80;;;;;;;15.51;87.62;100302.50;5052556;28;20258;-73
2021/09/23 10:55:32;;;;;;;20.47;14.17;;;;;;;15.49;88.51;100280.25;5019631;28;20211;-73
2021/09/23 10:57:58;;;;;;;23.23;14.30;;;;;;;15.35;87.79;100283.22;5052428;28;20195;-74
2021/09/23 11:00:31;;;;;;;24.53;14.37;;;;;;;15.45;88.50;100273.41;5035613;28;20199;-72